createdAt,value
2023-11-18T00:00:04.782Z,29.65
2023-11-18T00:05:18.789Z,20.65
2023-11-18T00:10:26.407Z,5.82
2023-11-18T00:15:36.108Z,5.68
2023-11-18T00:20:44.459Z,5.32
2023-11-18T00:25:51.575Z,5.40
2023-11-18T00:30:58.585Z,5.65
2023-11-18T00:36:09.065Z,4.95
2023-11-18T00:41:16.442Z,5.55
2023-11-18T00:46:23.823Z,5.10
2023-11-18T00:51:32.110Z,6.95
2023-11-18T00:56:38.867Z,5.15
2023-11-18T01:01:46.050Z,4.88
2023-11-18T01:06:54.491Z,5.00
2023-11-18T01:12:08.090Z,5.03
2023-11-18T01:17:17.966Z,5.47
2023-11-18T01:22:26.052Z,4.00
2023-11-18T01:27:34.766Z,4.60
2023-11-18T01:32:42.646Z,4.68
2023-11-18T01:37:50.833Z,4.83
2023-11-18T01:42:57.481Z,4.67
2023-11-18T01:48:04.462Z,4.63
2023-11-18T01:53:15.554Z,4.88
2023-11-18T01:58:24.574Z,4.55
2023-11-18T02:03:32.028Z,4.28
2023-11-18T02:08:42.974Z,4.75
2023-11-18T02:13:54.039Z,4.45
2023-11-18T02:19:01.679Z,4.78
2023-11-18T02:24:11.160Z,4.38
2023-11-18T02:29:19.883Z,3.65
2023-11-18T02:34:34.076Z,4.95
2023-11-18T02:39:45.944Z,3.80
2023-11-18T02:45:01.113Z,3.47
2023-11-18T02:50:12.408Z,3.53
2023-11-18T02:55:21.264Z,3.17
2023-11-18T03:00:30.635Z,3.53
2023-11-18T03:10:48.339Z,3.25
2023-11-18T03:15:58.379Z,2.55
2023-11-18T03:21:08.084Z,2.85
2023-11-18T03:26:15.972Z,2.58
2023-11-18T03:31:25.060Z,2.88
2023-11-18T03:36:31.483Z,2.80
2023-11-18T03:41:38.937Z,3.20
2023-11-18T03:46:49.438Z,2.40
2023-11-18T03:51:56.210Z,2.72
2023-11-18T03:57:02.829Z,3.20
2023-11-18T04:02:12.752Z,2.92
2023-11-18T04:07:20.169Z,2.83
2023-11-18T04:12:28.219Z,2.95
2023-11-18T04:17:39.689Z,2.83
2023-11-18T04:22:47.174Z,3.03
2023-11-18T04:27:57.724Z,3.10
2023-11-18T04:33:05.955Z,3.00
2023-11-18T04:38:12.651Z,3.15
2023-11-18T04:43:25.399Z,3.03
2023-11-18T04:48:41.712Z,2.50
2023-11-18T04:53:49.828Z,3.13
2023-11-18T04:59:02.425Z,2.55
2023-11-18T05:04:15.108Z,3.10
2023-11-18T05:09:22.223Z,2.65
2023-11-18T05:14:30.279Z,3.10
2023-11-18T05:19:38.378Z,2.70
2023-11-18T05:24:47.179Z,3.45
2023-11-18T05:29:56.957Z,3.22
2023-11-18T05:35:06.572Z,2.60
2023-11-18T05:40:17.268Z,2.80
2023-11-18T05:45:33.389Z,2.63
2023-11-18T05:50:41.463Z,2.70
2023-11-18T05:55:51.423Z,2.40
2023-11-18T06:00:59.522Z,2.70
2023-11-18T06:06:09.402Z,3.40
2023-11-18T06:11:19.161Z,4.13
2023-11-18T06:16:28.430Z,4.30
2023-11-18T06:21:41.005Z,3.83
2023-11-18T06:26:50.924Z,3.67
2023-11-18T06:31:59.149Z,4.07
2023-11-18T06:37:08.660Z,3.92
2023-11-18T06:42:15.586Z,2.85
2023-11-18T06:47:22.220Z,2.95
2023-11-18T06:52:30.580Z,2.60
2023-11-18T06:57:37.447Z,3.27
2023-11-18T07:02:44.203Z,3.63
2023-11-18T07:07:52.391Z,3.75
2023-11-18T07:13:01.393Z,3.67
2023-11-18T07:23:24.932Z,4.10
2023-11-18T07:28:35.760Z,4.28
2023-11-18T07:33:50.918Z,3.13
2023-11-18T07:39:02.612Z,3.78
2023-11-18T07:44:12.165Z,4.30
2023-11-18T07:49:19.003Z,4.28
2023-11-18T07:54:30.446Z,4.53
2023-11-18T07:59:39.247Z,4.88
2023-11-18T08:04:51.244Z,5.50
2023-11-18T08:15:14.039Z,4.85
2023-11-18T08:20:40.995Z,4.63
2023-11-18T08:26:13.774Z,5.38
2023-11-18T08:31:46.360Z,4.40
2023-11-18T08:37:02.560Z,4.43
2023-11-18T08:43:36.306Z,4.43
2023-11-18T08:49:50.513Z,4.03
2023-11-18T08:55:48.887Z,5.30
2023-11-18T09:01:33.257Z,6.53
2023-11-18T09:07:01.729Z,6.47
2023-11-18T09:12:53.876Z,4.40
2023-11-18T09:19:38.647Z,4.53
2023-11-18T09:32:45.694Z,5.57
2023-11-18T09:39:26.999Z,5.53
2023-11-18T09:51:18.601Z,6.45
2023-11-18T09:56:58.913Z,6.47
2023-11-18T10:02:08.501Z,6.90
2023-11-18T10:08:34.235Z,5.07
2023-11-18T10:15:13.261Z,5.80
2023-11-18T10:21:02.613Z,6.07
2023-11-18T10:26:42.055Z,5.47
2023-11-18T10:32:29.898Z,5.90
2023-11-18T10:38:09.655Z,6.13
2023-11-18T10:43:30.850Z,5.20
2023-11-18T10:48:49.880Z,6.13
2023-11-18T10:54:52.164Z,5.53
2023-11-18T11:00:20.106Z,7.18
2023-11-18T11:06:28.089Z,6.70
2023-11-18T11:12:26.192Z,7.63
2023-11-18T11:18:11.451Z,8.18
2023-11-18T11:23:38.746Z,7.68
2023-11-18T11:35:20.663Z,6.25
2023-11-18T11:41:21.122Z,6.65
2023-11-18T11:46:37.146Z,6.93
2023-11-18T11:51:56.683Z,7.05
2023-11-18T11:57:07.395Z,8.23
2023-11-18T12:02:25.911Z,8.75
2023-11-18T12:07:40.573Z,8.30
2023-11-18T12:12:47.336Z,7.80
2023-11-18T12:18:21.915Z,7.10
2023-11-18T12:23:28.915Z,8.05
2023-11-18T12:28:39.949Z,8.45
2023-11-18T12:34:11.126Z,7.43
2023-11-18T12:39:55.384Z,9.07
2023-11-18T12:45:33.625Z,8.18
2023-11-18T12:50:48.080Z,6.38
2023-11-18T12:55:57.502Z,8.20
2023-11-18T13:01:04.822Z,6.13
2023-11-18T13:06:21.957Z,7.82
2023-11-18T13:11:31.195Z,8.05
2023-11-18T13:16:43.155Z,9.13
2023-11-18T13:21:59.536Z,7.45
2023-11-18T13:27:08.675Z,8.10
2023-11-18T13:32:16.876Z,8.30
2023-11-18T13:37:26.535Z,8.93
2023-11-18T13:42:35.204Z,8.18
2023-11-18T13:47:46.501Z,7.13
2023-11-18T13:52:55.738Z,7.35
2023-11-18T13:58:06.557Z,7.80
2023-11-18T14:03:14.059Z,8.38
2023-11-18T14:08:23.483Z,7.78
2023-11-18T14:13:32.547Z,7.00
2023-11-18T14:23:52.167Z,8.10
2023-11-18T14:29:00.488Z,8.23
2023-11-18T14:34:08.644Z,7.33
2023-11-18T14:39:19.657Z,8.13
2023-11-18T14:44:27.423Z,7.45
2023-11-18T14:49:34.866Z,7.47
2023-11-18T14:54:43.779Z,8.35
2023-11-18T14:59:51.510Z,8.13
2023-11-18T15:04:59.228Z,8.18
2023-11-18T15:10:12.577Z,7.40
2023-11-18T15:15:22.574Z,7.85
2023-11-18T15:20:30.218Z,8.63
2023-11-18T15:25:39.293Z,7.80
2023-11-18T15:30:46.926Z,8.88
2023-11-18T15:35:53.957Z,9.27
2023-11-18T15:41:02.572Z,8.18
2023-11-18T15:46:12.735Z,9.55
2023-11-18T15:51:21.591Z,10.00
2023-11-18T15:56:30.245Z,8.77
2023-11-18T16:01:37.508Z,8.45
2023-11-18T16:06:44.292Z,8.93
2023-11-18T16:11:53.954Z,9.85
2023-11-18T16:17:02.270Z,8.95
2023-11-18T16:22:10.388Z,8.00
2023-11-18T16:27:19.566Z,10.38
2023-11-18T16:32:27.239Z,9.75
2023-11-18T16:37:34.781Z,9.77
2023-11-18T16:42:43.702Z,9.27
2023-11-18T16:47:52.665Z,10.02
2023-11-18T16:53:01.974Z,9.95
2023-11-18T16:58:14.305Z,9.60
2023-11-18T17:03:24.974Z,9.55
2023-11-18T17:08:32.838Z,8.95
2023-11-18T17:13:42.930Z,10.55
2023-11-18T17:18:52.467Z,11.93
2023-11-18T17:24:02.076Z,11.60
2023-11-18T17:29:11.775Z,15.45
2023-11-18T17:34:20.603Z,14.93
2023-11-18T17:39:28.752Z,14.17
2023-11-18T17:44:40.605Z,13.32
2023-11-18T17:49:49.141Z,14.43
2023-11-18T17:54:56.869Z,15.77
2023-11-18T18:00:13.757Z,12.53
2023-11-18T18:05:31.525Z,13.88
2023-11-18T18:10:39.305Z,16.77
2023-11-18T18:15:49.709Z,18.17
2023-11-18T18:21:00.570Z,18.58
2023-11-18T18:26:11.927Z,14.32
2023-11-18T18:31:23.393Z,15.15
2023-11-18T18:36:31.548Z,13.85
2023-11-18T18:46:52.812Z,11.88
2023-11-18T18:51:59.699Z,12.27
2023-11-18T18:57:10.612Z,13.35
2023-11-18T19:02:20.604Z,10.45
2023-11-18T19:07:35.502Z,10.93
2023-11-18T19:12:49.986Z,12.65
2023-11-18T19:18:06.313Z,11.35
2023-11-18T19:23:14.662Z,11.93
2023-11-18T19:28:26.984Z,12.80
2023-11-18T19:33:37.346Z,11.48
2023-11-18T19:38:48.716Z,11.85
2023-11-18T19:43:58.561Z,12.95
2023-11-18T19:49:08.401Z,11.25
2023-11-18T19:54:16.428Z,10.80
2023-11-18T19:59:23.822Z,11.00
2023-11-18T20:04:32.885Z,10.60
2023-11-18T20:09:41.123Z,11.05
2023-11-18T20:14:50.924Z,23.20
2023-11-18T20:20:01.996Z,24.02
2023-11-18T20:25:12.800Z,28.75
2023-11-18T20:30:27.402Z,27.42
2023-11-18T20:35:36.776Z,27.80
2023-11-18T20:40:46.779Z,21.35
2023-11-18T20:45:56.181Z,18.45
2023-11-18T20:51:06.895Z,21.13
2023-11-18T20:56:14.925Z,19.67
2023-11-18T21:01:24.782Z,18.77
2023-11-18T21:06:34.151Z,17.27
2023-11-18T21:11:42.440Z,15.68
2023-11-18T21:16:51.818Z,15.52
2023-11-18T21:27:13.966Z,15.75
2023-11-18T21:32:23.696Z,16.17
2023-11-18T21:37:32.948Z,16.80
2023-11-18T21:42:40.679Z,14.98
2023-11-18T21:47:50.824Z,15.63
2023-11-18T21:53:08.607Z,17.13
2023-11-18T21:58:18.456Z,13.93
2023-11-18T22:03:26.485Z,14.95
2023-11-18T22:08:36.632Z,13.73
2023-11-18T22:13:46.513Z,14.63
2023-11-18T22:18:54.075Z,13.32
2023-11-18T22:24:02.694Z,12.60
2023-11-18T22:29:09.929Z,13.18
2023-11-18T22:34:16.774Z,13.38
2023-11-18T22:39:25.609Z,13.68
2023-11-18T22:44:34.239Z,12.43
2023-11-18T22:54:51.805Z,15.27
2023-11-18T23:00:00.330Z,15.40
2023-11-18T23:05:14.742Z,15.25
2023-11-18T23:10:24.682Z,15.77
2023-11-18T23:15:31.864Z,15.40
2023-11-18T23:20:39.480Z,15.00
2023-11-18T23:25:47.828Z,16.20
2023-11-18T23:31:00.844Z,13.60
2023-11-18T23:36:09.187Z,16.13
2023-11-18T23:41:18.367Z,16.92
2023-11-18T23:46:28.488Z,17.88
2023-11-18T23:51:36.409Z,16.05
2023-11-18T23:56:45.295Z,16.05
